createdAt,value
2018-03-26T00:05:47.014Z,14.18
2018-03-26T00:11:37.749Z,13.15
2018-03-26T00:17:28.513Z,11.91
2018-03-26T00:23:19.360Z,12.07
2018-03-26T00:29:10.093Z,13.63
2018-03-26T00:35:00.845Z,10.94
2018-03-26T00:40:51.669Z,13.37
2018-03-26T00:46:42.416Z,10.15
2018-03-26T00:52:33.179Z,11.04
2018-03-26T00:58:23.999Z,12.41
2018-03-26T01:04:14.778Z,10.88
2018-03-26T01:10:05.505Z,9.98
2018-03-26T01:15:56.326Z,11.33
2018-03-26T01:21:47.091Z,17.55
2018-03-26T01:27:37.877Z,10.4
2018-03-26T01:33:28.655Z,9.5
2018-03-26T01:39:19.439Z,12.73
2018-03-26T01:45:10.243Z,12.85
2018-03-26T01:51:01.041Z,11.93
2018-03-26T01:56:51.814Z,10.15
2018-03-26T02:02:42.546Z,11.72
2018-03-26T02:08:33.348Z,12.35
2018-03-26T02:14:24.148Z,11.83
2018-03-26T02:20:14.904Z,11.64
2018-03-26T02:26:05.686Z,15.29
2018-03-26T02:31:56.491Z,12.85
2018-03-26T02:37:47.248Z,12.39
2018-03-26T02:43:38.025Z,16.03
2018-03-26T02:49:28.816Z,15.34
2018-03-26T02:55:19.587Z,15.73
2018-03-26T03:01:10.361Z,11.82
2018-03-26T03:07:01.130Z,11.32
2018-03-26T03:12:51.925Z,16.55
2018-03-26T03:18:42.676Z,14.29
2018-03-26T03:24:33.487Z,14.72
2018-03-26T03:30:24.223Z,15.76
2018-03-26T03:36:15.244Z,17.35
2018-03-26T03:42:05.757Z,16
2018-03-26T03:47:56.620Z,15.2
2018-03-26T03:53:47.358Z,14.8
2018-03-26T03:59:38.146Z,17.21
2018-03-26T04:05:28.885Z,16.24
2018-03-26T04:11:19.625Z,17.16
2018-03-26T04:17:10.360Z,16.88
2018-03-26T04:23:01.123Z,18.01
2018-03-26T04:28:51.884Z,15.86
2018-03-26T04:34:42.751Z,18.9
2018-03-26T04:40:33.441Z,16.06
2018-03-26T04:46:24.261Z,15.13
2018-03-26T04:52:14.988Z,12.71
2018-03-26T04:58:05.715Z,16.97
2018-03-26T05:03:56.467Z,20.56
2018-03-26T05:09:47.250Z,19.22
2018-03-26T05:15:38.005Z,16.55
2018-03-26T05:21:28.780Z,16.81
2018-03-26T05:27:19.506Z,14.38
2018-03-26T05:33:10.304Z,21.85
2018-03-26T05:39:01.013Z,15.81
2018-03-26T05:44:51.818Z,20.7
2018-03-26T05:50:42.584Z,15.09
2018-03-26T05:56:33.337Z,16.3
2018-03-26T06:02:24.090Z,12.77
2018-03-26T06:08:14.827Z,16.91
2018-03-26T06:14:05.633Z,16.16
2018-03-26T06:19:56.372Z,23.19
2018-03-26T06:25:47.141Z,24.77
2018-03-26T06:31:37.917Z,25.67
2018-03-26T06:37:28.671Z,31.24
2018-03-26T06:43:19.507Z,31.56
2018-03-26T06:49:10.251Z,45.1
2018-03-26T06:55:00.972Z,44.83
2018-03-26T07:00:51.772Z,47.66
2018-03-26T07:06:42.631Z,38.79
2018-03-26T07:12:33.321Z,39.97
2018-03-26T07:18:24.060Z,29.69
2018-03-26T07:24:14.900Z,26.95
2018-03-26T07:30:05.655Z,30.75
2018-03-26T07:35:56.444Z,28.17
2018-03-26T07:41:47.221Z,29.24
2018-03-26T07:47:38.027Z,28.38
2018-03-26T07:53:28.835Z,28.83
2018-03-26T07:59:19.600Z,28.29
2018-03-26T08:05:10.417Z,27.96
2018-03-26T08:11:01.206Z,32.86
2018-03-26T08:16:51.991Z,33.4
2018-03-26T08:22:42.855Z,15.23
2018-03-26T08:28:33.586Z,16.22
2018-03-26T08:34:24.413Z,14.42
2018-03-26T08:40:15.220Z,15.01
2018-03-26T08:46:06.058Z,12.34
2018-03-26T08:51:56.867Z,26.4
2018-03-26T08:57:47.710Z,13.89
2018-03-26T09:03:38.569Z,11.16
2018-03-26T09:09:29.553Z,11.4
2018-03-26T09:15:20.313Z,9.67
2018-03-26T09:21:11.145Z,9.53
2018-03-26T09:27:01.993Z,9.6
2018-03-26T09:32:52.873Z,8.57
2018-03-26T09:38:43.796Z,7.97
2018-03-26T09:44:34.623Z,11.97
2018-03-26T09:50:25.520Z,9.44
2018-03-26T09:56:16.336Z,8.54
2018-03-26T10:02:07.256Z,7.28
2018-03-26T10:07:58.159Z,7.84
2018-03-26T10:13:49.013Z,7.25
2018-03-26T10:19:39.958Z,10.59
2018-03-26T10:25:30.808Z,7.45
2018-03-26T10:31:21.729Z,10.29
2018-03-26T10:37:12.659Z,6.44
2018-03-26T10:43:03.605Z,7.16
2018-03-26T10:48:54.439Z,7.17
2018-03-26T10:54:45.433Z,6.76
2018-03-26T11:00:36.256Z,6.69
2018-03-26T11:06:27.191Z,5.86
2018-03-26T11:12:18.033Z,9.08
2018-03-26T11:18:08.889Z,6.73
2018-03-26T11:23:59.798Z,6.54
2018-03-26T11:29:50.723Z,12.09
2018-03-26T11:35:41.677Z,11.73
2018-03-26T11:41:32.541Z,8.68
2018-03-26T11:47:23.390Z,11.52
2018-03-26T11:53:14.288Z,11.52
2018-03-26T11:59:05.164Z,11.61
2018-03-26T12:04:56.052Z,10.43
2018-03-26T12:10:46.913Z,11.44
2018-03-26T12:16:37.770Z,8.55
2018-03-26T12:22:28.677Z,8.26
2018-03-26T12:28:19.533Z,8.35
2018-03-26T12:34:10.420Z,12.19
2018-03-26T12:40:01.288Z,8.98
2018-03-26T12:45:52.197Z,11.39
2018-03-26T12:51:43.004Z,6.57
2018-03-26T12:57:33.929Z,7.51
2018-03-26T13:03:24.768Z,7.2
2018-03-26T13:09:15.709Z,10.86
2018-03-26T13:15:06.511Z,10.8
2018-03-26T13:20:57.348Z,7.23
2018-03-26T13:26:48.254Z,6.73
2018-03-26T13:32:39.109Z,7.59
2018-03-26T13:38:30.039Z,7.73
2018-03-26T13:44:20.821Z,10.77
2018-03-26T13:50:11.678Z,7.16
2018-03-26T13:56:02.591Z,8.84
2018-03-26T14:01:53.427Z,8.85
2018-03-26T14:07:44.357Z,8.57
2018-03-26T14:13:35.142Z,7.18
2018-03-26T14:19:26.018Z,5.53
2018-03-26T14:25:16.836Z,8.79
2018-03-26T14:31:07.722Z,7.16
2018-03-26T14:36:58.606Z,7.34
2018-03-26T14:42:49.468Z,7.68
2018-03-26T14:48:40.331Z,7.66
2018-03-26T14:54:31.189Z,8
2018-03-26T15:00:22.099Z,6.59
2018-03-26T15:06:12.916Z,13.16
2018-03-26T15:12:03.776Z,8.09
2018-03-26T15:17:54.628Z,10.34
2018-03-26T15:23:45.491Z,11.56
2018-03-26T15:29:36.373Z,9.6
2018-03-26T15:35:27.201Z,17.35
2018-03-26T15:41:18.043Z,12.75
2018-03-26T15:47:08.875Z,10.43
2018-03-26T15:52:59.702Z,20.35
2018-03-26T15:58:50.631Z,10.4
2018-03-26T16:04:41.403Z,19.34
2018-03-26T16:10:32.228Z,11.02
2018-03-26T16:16:23.102Z,10.48
2018-03-26T16:22:13.954Z,9.48
2018-03-26T16:28:04.822Z,16.7
2018-03-26T16:33:55.651Z,17.55
2018-03-26T16:39:46.594Z,16.37
2018-03-26T16:45:37.361Z,13.43
2018-03-26T16:51:28.183Z,26.45
2018-03-26T16:57:19.048Z,36.88
2018-03-26T17:03:09.863Z,52.59
2018-03-26T17:09:00.704Z,27.37
2018-03-26T17:14:51.581Z,18.19
2018-03-26T17:20:42.397Z,8.98
2018-03-26T17:26:33.233Z,11.73
2018-03-26T17:32:24.105Z,12.46
2018-03-26T17:38:14.893Z,11.49
2018-03-26T17:44:05.724Z,12.65
2018-03-26T17:49:56.552Z,11.01
2018-03-26T17:55:47.385Z,26.35
2018-03-26T18:01:38.197Z,24.08
2018-03-26T18:07:29.040Z,15.04
2018-03-26T18:13:19.859Z,17.67
2018-03-26T18:19:10.661Z,37.71
2018-03-26T18:25:01.481Z,19.77
2018-03-26T18:30:52.289Z,19.91
2018-03-26T18:36:43.134Z,19.21
2018-03-26T18:42:33.982Z,16.33
2018-03-26T18:48:24.781Z,20.97
2018-03-26T18:54:15.662Z,15.68
2018-03-26T19:00:06.453Z,13.81
2018-03-26T19:05:57.241Z,16.7
2018-03-26T19:11:48.058Z,13.81
2018-03-26T19:17:38.879Z,15.15
2018-03-26T19:23:29.698Z,21.19
2018-03-26T19:29:20.506Z,12.04
2018-03-26T19:35:11.331Z,12.66
2018-03-26T19:41:02.116Z,34.02
2018-03-26T19:46:52.916Z,15.9
2018-03-26T19:52:43.888Z,17.04
2018-03-26T19:58:34.547Z,11.79
2018-03-26T20:04:25.352Z,10.39
2018-03-26T20:10:16.174Z,8.88
2018-03-26T20:16:06.988Z,12.39
2018-03-26T20:21:57.763Z,11.54
2018-03-26T20:27:48.521Z,17.2
2018-03-26T20:33:39.380Z,18.81
2018-03-26T20:39:30.129Z,14.15
2018-03-26T20:45:20.933Z,18.99
2018-03-26T20:51:11.803Z,21.67
2018-03-26T20:57:02.603Z,17.97
2018-03-26T21:02:53.388Z,15.63
2018-03-26T21:08:44.141Z,13.16
2018-03-26T21:14:35.009Z,11.71
2018-03-26T21:20:25.794Z,12.08
2018-03-26T21:26:16.562Z,9.53
2018-03-26T21:32:07.400Z,8.39
2018-03-26T21:37:58.118Z,8.15
2018-03-26T21:43:48.980Z,9.36
2018-03-26T21:49:39.732Z,12.16
2018-03-26T21:55:30.514Z,12.54
2018-03-26T22:01:21.321Z,10.3
2018-03-26T22:07:12.102Z,10.63
2018-03-26T22:13:02.879Z,12.16
2018-03-26T22:18:53.680Z,8.71
2018-03-26T22:24:44.460Z,6.93
2018-03-26T22:30:35.225Z,6.37
2018-03-26T22:36:26.114Z,5.95
2018-03-26T22:42:16.838Z,6.33
2018-03-26T22:48:07.630Z,8.01
2018-03-26T22:53:58.442Z,8.41
2018-03-26T22:59:49.226Z,6.58
2018-03-26T23:05:39.976Z,7.39
2018-03-26T23:11:30.764Z,8.44
2018-03-26T23:17:21.569Z,6.53
2018-03-26T23:23:12.372Z,7.84
2018-03-26T23:29:03.184Z,8.11
2018-03-26T23:34:53.961Z,8.01
2018-03-26T23:40:44.751Z,6.45
2018-03-26T23:46:35.516Z,9.93
2018-03-26T23:52:26.346Z,7.36
2018-03-26T23:58:17.112Z,8.68
